Time;durP1;ratioP1;P1;durP2;ratioP2;P2;SDS_P1;SDS_P2;PMS_P1;PMS_P2;Temp;Humidity;BMP_temperature;BMP_pressure;BME280_temperature;BME280_humidity;BME280_pressure;Samples;Min_cycle;Max_cycle;Signal;HPM_P1;HPM_P2
2022/06/10 00:00:33;;;;;;;0.50;0.20;;;23.00;58.70;;;;;;5050858;28;20118;-20
2022/06/10 00:02:58;;;;;;;0.63;0.32;;;23.10;58.80;;;;;;5057062;28;20052;-21
2022/06/10 00:05:25;;;;;;;0.55;0.38;;;23.00;58.70;;;;;;5045903;28;20130;-20
2022/06/10 00:07:51;;;;;;;0.50;0.40;;;23.00;58.80;;;;;;5044538;28;20052;-20
2022/06/10 00:10:19;;;;;;;0.75;0.50;;;23.00;58.80;;;;;;5051972;28;20529;-20
2022/06/10 00:12:45;;;;;;;2.47;0.82;;;23.00;58.80;;;;;;5049392;28;20126;-21
2022/06/10 00:15:11;;;;;;;1.00;0.47;;;23.10;58.70;;;;;;5068607;28;20052;-19
2022/06/10 00:17:36;;;;;;;0.95;0.55;;;23.00;58.60;;;;;;5073448;28;20048;-19
2022/06/10 00:20:03;;;;;;;0.52;0.52;;;23.10;59.10;;;;;;5072972;28;20178;-19
2022/06/10 00:22:29;;;;;;;0.98;0.63;;;23.10;58.40;;;;;;5080203;28;20447;-20
2022/06/10 00:24:54;;;;;;;0.40;0.30;;;23.20;58.30;;;;;;5071600;28;20070;-17
2022/06/10 00:27:20;;;;;;;0.38;0.30;;;23.20;58.20;;;;;;5081116;28;20131;-18
2022/06/10 00:29:47;;;;;;;0.35;0.32;;;23.20;58.20;;;;;;5065984;28;20036;-20
2022/06/10 00:32:13;;;;;;;0.65;0.40;;;23.20;58.20;;;;;;5062720;28;20072;-21
2022/06/10 00:34:39;;;;;;;0.82;0.50;;;23.20;58.20;;;;;;5071314;28;20068;-19
2022/06/10 00:37:04;;;;;;;1.02;0.40;;;23.10;58.20;;;;;;5058244;28;20128;-18
2022/06/10 00:39:30;;;;;;;1.08;0.70;;;23.20;58.30;;;;;;5072801;28;20120;-18
2022/06/10 00:41:56;;;;;;;2.25;0.80;;;23.20;58.30;;;;;;5063619;28;20464;-18
2022/06/10 00:44:36;;;;;;;0.60;0.40;;;23.20;58.50;;;;;;5067518;28;20059;-17
2022/06/10 00:47:04;;;;;;;0.88;0.50;;;23.10;58.50;;;;;;5069786;28;20067;-19
2022/06/10 00:49:31;;;;;;;0.47;0.30;;;23.10;58.50;;;;;;5055001;28;20075;-19
2022/06/10 00:51:56;;;;;;;0.25;0.25;;;23.10;58.60;;;;;;5074709;28;20041;-18
2022/06/10 00:54:35;;;;;;;0.28;0.10;;;23.10;58.40;;;;;;5039312;28;20118;-20
2022/06/10 00:57:11;;;;;;;0.45;0.45;;;23.10;58.70;;;;;;5074916;28;20037;-19
2022/06/10 00:59:50;;;;;;;0.50;0.30;;;23.10;58.90;;;;;;5070183;28;20040;-18
2022/06/10 01:02:18;;;;;;;0.40;0.40;;;23.10;58.80;;;;;;5076846;28;20052;-21
2022/06/10 01:04:44;;;;;;;0.57;0.40;;;23.10;58.90;;;;;;5095036;28;20036;-20
2022/06/10 01:07:10;;;;;;;0.28;0.20;;;23.10;58.80;;;;;;5094815;28;20070;-18
2022/06/10 01:09:36;;;;;;;0.63;0.38;;;23.10;58.80;;;;;;5096643;28;20036;-17
2022/06/10 01:12:04;;;;;;;0.30;0.22;;;23.10;59.50;;;;;;5067522;28;20079;-17
2022/06/10 01:15:09;;;;;;;0.52;0.30;;;23.10;58.80;;;;;;5080618;28;20069;-17
2022/06/10 01:17:56;;;;;;;0.98;0.28;;;23.00;59.00;;;;;;4998606;28;20137;-17
2022/06/10 01:20:37;;;;;;;0.60;0.30;;;23.00;59.00;;;;;;4997729;28;20190;-18
2022/06/10 01:23:11;;;;;;;0.55;0.30;;;23.00;59.00;;;;;;5051847;28;20052;-17
2022/06/10 01:25:59;;;;;;;0.70;0.40;;;23.00;59.00;;;;;;5069086;28;20038;-17
2022/06/10 01:28:25;;;;;;;0.25;0.20;;;23.00;59.10;;;;;;5075978;28;20097;-18
2022/06/10 01:31:01;;;;;;;0.95;0.40;;;23.00;59.10;;;;;;5071141;28;20123;-17
2022/06/10 01:33:35;;;;;;;0.75;0.43;;;23.00;59.10;;;;;;5059445;28;20119;-18
2022/06/10 01:36:30;;;;;;;0.52;0.28;;;23.00;59.10;;;;;;5069409;28;20060;-19
2022/06/10 01:39:24;;;;;;;0.30;0.20;;;23.00;59.00;;;;;;5001800;28;20055;-19
2022/06/10 01:42:11;;;;;;;0.40;0.30;;;23.00;59.10;;;;;;5051491;28;20095;-18
2022/06/10 01:44:40;;;;;;;0.93;0.40;;;23.00;59.10;;;;;;5058680;28;20086;-18
2022/06/10 01:47:21;;;;;;;0.40;0.40;;;23.00;59.10;;;;;;5041767;28;20489;-18
2022/06/10 01:49:46;;;;;;;0.75;0.38;;;23.00;59.20;;;;;;5047766;28;20099;-18
2022/06/10 01:52:39;;;;;;;1.35;0.55;;;23.00;59.10;;;;;;5073287;28;20049;-18
2022/06/10 01:55:18;;;;;;;1.08;0.40;;;23.00;59.20;;;;;;5057899;28;20045;-18
2022/06/10 01:57:48;;;;;;;0.40;0.30;;;23.00;59.70;;;;;;5059148;28;20048;-17
2022/06/10 02:00:19;;;;;;;0.80;0.35;;;23.00;59.10;;;;;;5068951;28;20386;-17
2022/06/10 02:02:59;;;;;;;0.40;0.20;;;23.00;59.10;;;;;;5059085;28;20067;-21
2022/06/10 02:05:25;;;;;;;0.35;0.20;;;22.90;59.10;;;;;;5060724;28;20556;-19
2022/06/10 02:08:00;;;;;;;0.32;0.20;;;22.90;59.40;;;;;;5059083;28;20080;-19
2022/06/10 02:10:59;;;;;;;0.45;0.20;;;22.90;59.10;;;;;;5075850;28;20123;-18
2022/06/10 02:13:53;;;;;;;0.20;0.20;;;22.90;59.10;;;;;;5021554;28;20052;-17
2022/06/10 02:16:23;;;;;;;1.08;0.43;;;22.90;59.40;;;;;;5050779;28;20048;-18
2022/06/10 02:18:54;;;;;;;0.30;0.30;;;22.90;59.30;;;;;;5057927;28;20041;-17
2022/06/10 02:21:53;;;;;;;0.30;0.30;;;22.90;59.30;;;;;;5041528;28;20044;-18
2022/06/10 02:24:25;;;;;;;0.40;0.22;;;22.90;59.40;;;;;;5069793;28;20068;-17
2022/06/10 02:26:51;;;;;;;0.50;0.40;;;22.90;59.20;;;;;;5059024;28;20084;-17
2022/06/10 02:29:20;;;;;;;0.85;0.50;;;22.90;59.30;;;;;;5067363;28;20057;-18
2022/06/10 02:31:57;;;;;;;0.25;0.20;;;22.80;59.30;;;;;;5078718;28;20048;-20
2022/06/10 02:34:23;;;;;;;0.30;0.25;;;22.90;59.30;;;;;;5050320;28;20044;-18
2022/06/10 02:37:17;;;;;;;0.20;0.20;;;22.80;59.40;;;;;;5058570;28;20041;-19
2022/06/10 02:40:05;;;;;;;0.30;0.30;;;22.80;59.50;;;;;;5075991;28;20375;-19
2022/06/10 02:42:45;;;;;;;0.35;0.35;;;22.80;59.40;;;;;;5060178;28;20685;-17
2022/06/10 02:45:16;;;;;;;0.88;0.65;;;22.80;59.40;;;;;;5070049;28;20036;-18
2022/06/10 02:47:54;;;;;;;0.40;0.32;;;22.80;59.50;;;;;;5082381;28;20486;-17
2022/06/10 02:50:20;;;;;;;0.40;0.35;;;22.80;59.50;;;;;;5054738;28;20449;-17
2022/06/10 02:52:45;;;;;;;1.17;0.50;;;22.80;59.60;;;;;;5067789;28;20114;-17
2022/06/10 02:55:14;;;;;;;0.80;0.35;;;22.80;59.50;;;;;;5038867;28;20076;-18
2022/06/10 03:03:15;;;;;;;0.73;0.40;;;22.80;59.60;;;;;;5073771;28;20075;-18
2022/06/10 03:06:01;;;;;;;0.50;0.32;;;22.80;59.60;;;;;;5058187;28;20040;-17
2022/06/10 03:08:34;;;;;;;0.40;0.22;;;22.70;59.70;;;;;;5044523;28;20048;-18
2022/06/10 03:11:18;;;;;;;0.73;0.30;;;22.70;59.60;;;;;;5062557;28;20508;-17
2022/06/10 03:13:47;;;;;;;0.50;0.30;;;22.70;59.70;;;;;;5075407;28;20072;-20
2022/06/10 03:16:15;;;;;;;0.57;0.30;;;22.70;59.70;;;;;;5074831;28;20059;-18
2022/06/10 03:18:59;;;;;;;0.50;0.22;;;22.70;59.80;;;;;;5075499;28;20043;-19
2022/06/10 03:21:27;;;;;;;0.85;0.50;;;22.70;59.80;;;;;;5075491;28;20128;-18
2022/06/10 03:24:04;;;;;;;0.77;0.45;;;22.70;59.70;;;;;;5086071;28;20211;-18
2022/06/10 03:26:51;;;;;;;0.95;0.40;;;22.70;59.70;;;;;;5085627;28;20647;-19
2022/06/10 03:29:35;;;;;;;0.65;0.38;;;22.70;59.80;;;;;;5057783;28;20489;-17
2022/06/10 03:32:13;;;;;;;0.30;0.30;;;22.70;59.70;;;;;;5055366;28;20037;-19
2022/06/10 03:34:44;;;;;;;0.95;0.50;;;22.70;59.80;;;;;;5044415;28;20045;-19
2022/06/10 03:37:11;;;;;;;0.68;0.40;;;22.70;59.80;;;;;;5037798;28;20025;-19
2022/06/10 03:39:36;;;;;;;1.45;0.40;;;22.70;59.80;;;;;;5069889;28;20066;-18
2022/06/10 03:42:08;;;;;;;0.70;0.50;;;22.70;59.80;;;;;;5047621;28;20044;-18
2022/06/10 03:44:33;;;;;;;0.70;0.50;;;22.70;59.80;;;;;;5088651;28;20037;-18
2022/06/10 03:46:59;;;;;;;0.50;0.43;;;22.70;59.80;;;;;;5085036;28;20036;-20
2022/06/10 03:49:30;;;;;;;0.40;0.30;;;22.70;60.00;;;;;;5095264;28;20044;-20
2022/06/10 03:51:57;;;;;;;0.30;0.30;;;22.70;60.00;;;;;;5077674;28;20040;-19
2022/06/10 03:54:22;;;;;;;0.28;0.20;;;22.70;59.90;;;;;;5095358;28;20047;-18
2022/06/10 03:56:51;;;;;;;0.80;0.40;;;22.60;59.90;;;;;;5095005;28;20040;-18
2022/06/10 03:59:17;;;;;;;2.00;0.70;;;22.60;60.00;;;;;;5066471;28;20194;-18
2022/06/10 04:01:42;;;;;;;0.80;0.43;;;22.60;59.90;;;;;;5078261;28;20044;-18
2022/06/10 04:04:08;;;;;;;0.73;0.50;;;22.60;60.00;;;;;;5075373;28;20079;-19
2022/06/10 04:06:33;;;;;;;0.60;0.30;;;22.60;60.10;;;;;;5084320;28;20059;-17
2022/06/10 04:08:59;;;;;;;0.20;0.20;;;22.70;60.00;;;;;;5083435;28;20036;-18
2022/06/10 04:11:24;;;;;;;0.50;0.22;;;22.70;60.00;;;;;;5095606;28;20036;-18
2022/06/10 04:13:50;;;;;;;0.52;0.38;;;22.60;59.90;;;;;;5083387;28;20041;-18
2022/06/10 04:16:16;;;;;;;1.05;0.30;;;22.70;59.80;;;;;;5075209;28;20037;-17
2022/06/10 04:18:42;;;;;;;0.65;0.30;;;22.70;60.00;;;;;;5074705;28;20039;-18
2022/06/10 04:21:07;;;;;;;0.43;0.35;;;22.60;59.90;;;;;;5075257;28;20513;-20
2022/06/10 04:23:33;;;;;;;0.22;0.10;;;22.60;60.10;;;;;;5076928;28;20053;-20
2022/06/10 04:25:59;;;;;;;0.40;0.30;;;22.70;60.00;;;;;;5075073;28;20040;-17
2022/06/10 04:28:24;;;;;;;0.40;0.30;;;22.60;60.10;;;;;;5074933;28;20102;-17
2022/06/10 04:30:51;;;;;;;0.20;0.20;;;22.60;60.10;;;;;;5073457;28;20045;-20
2022/06/10 04:33:17;;;;;;;0.63;0.30;;;22.60;60.10;;;;;;5075087;28;20048;-18
2022/06/10 04:35:44;;;;;;;0.60;0.30;;;22.60;60.20;;;;;;5074242;28;20040;-17
2022/06/10 04:38:12;;;;;;;0.30;0.20;;;22.60;60.10;;;;;;5074787;28;20059;-19
2022/06/10 04:40:38;;;;;;;0.20;0.20;;;22.60;60.10;;;;;;5028074;28;20049;-17
2022/06/10 04:43:04;;;;;;;0.40;0.40;;;22.60;60.10;;;;;;5057953;28;20057;-17
2022/06/10 04:45:36;;;;;;;0.57;0.30;;;22.60;60.20;;;;;;5069185;28;20048;-20
2022/06/10 04:48:01;;;;;;;0.22;0.17;;;22.60;60.20;;;;;;5071825;28;20072;-18
2022/06/10 04:50:27;;;;;;;0.50;0.47;;;22.60;60.30;;;;;;5078617;28;20052;-20
2022/06/10 04:52:53;;;;;;;1.65;0.40;;;22.60;60.20;;;;;;5077970;28;20044;-18
2022/06/10 04:55:19;;;;;;;0.52;0.30;;;22.50;60.30;;;;;;5078649;28;20132;-17
2022/06/10 04:57:45;;;;;;;0.30;0.30;;;22.60;60.30;;;;;;5077984;28;20044;-19
2022/06/10 05:00:15;;;;;;;0.70;0.22;;;22.60;60.40;;;;;;5078530;28;20044;-17
2022/06/10 05:02:41;;;;;;;0.32;0.20;;;22.60;60.40;;;;;;5077206;28;20480;-17
2022/06/10 05:05:07;;;;;;;0.47;0.40;;;22.60;60.30;;;;;;5078405;28;20071;-18
2022/06/10 05:07:33;;;;;;;0.70;0.22;;;22.60;60.40;;;;;;5077493;28;20048;-18
2022/06/10 05:09:58;;;;;;;0.68;0.20;;;22.60;60.40;;;;;;5078367;28;20588;-17
2022/06/10 05:12:24;;;;;;;0.55;0.30;;;22.60;60.40;;;;;;5078445;28;20064;-18
2022/06/10 05:14:50;;;;;;;0.63;0.30;;;22.60;60.40;;;;;;5077674;28;20045;-17
2022/06/10 05:17:15;;;;;;;0.20;0.20;;;22.60;60.40;;;;;;5078275;28;20131;-18
2022/06/10 05:19:41;;;;;;;0.28;0.20;;;22.60;60.50;;;;;;5076421;28;20055;-19
2022/06/10 05:22:06;;;;;;;0.50;0.30;;;22.50;60.60;;;;;;5077671;28;20072;-19
2022/06/10 05:24:32;;;;;;;0.30;0.25;;;22.50;60.50;;;;;;5077280;28;20047;-20
2022/06/10 05:26:58;;;;;;;0.47;0.13;;;22.50;60.60;;;;;;5060301;28;20390;-18
2022/06/10 05:29:23;;;;;;;0.20;0.20;;;22.60;60.60;;;;;;5076214;28;20045;-17
2022/06/10 05:31:49;;;;;;;0.68;0.20;;;22.60;60.50;;;;;;5077238;28;22218;-18
2022/06/10 05:36:59;;;;;;;0.20;0.10;;;22.50;60.60;;;;;;5077160;28;20073;-18
2022/06/10 05:39:24;;;;;;;0.20;0.10;;;22.60;60.60;;;;;;5072521;28;20045;-20
2022/06/10 05:42:05;;;;;;;0.38;0.20;;;22.60;60.60;;;;;;5069824;28;20472;-18
2022/06/10 05:44:31;;;;;;;0.30;0.22;;;22.60;60.70;;;;;;5075508;28;20051;-18
2022/06/10 05:46:57;;;;;;;0.60;0.35;;;22.70;60.30;;;;;;5077595;28;20049;-19
2022/06/10 05:49:23;;;;;;;1.67;0.35;;;22.60;60.40;;;;;;4722698;28;9999986;-19
2022/06/10 05:51:48;;;;;;;0.40;0.22;;;22.70;60.30;;;;;;5066336;28;20052;-18
2022/06/10 05:54:14;;;;;;;0.88;0.20;;;22.60;60.50;;;;;;5069651;28;20556;-19
2022/06/10 05:56:40;;;;;;;0.45;0.22;;;22.60;60.70;;;;;;5059501;28;20083;-18
2022/06/10 05:59:06;;;;;;;0.20;0.20;;;22.60;60.60;;;;;;5070836;28;20044;-18
2022/06/10 06:01:32;;;;;;;0.38;0.20;;;22.60;60.60;;;;;;5062611;28;20113;-20
2022/06/10 06:03:57;;;;;;;0.47;0.30;;;22.70;60.70;;;;;;5063520;28;20036;-17
2022/06/10 06:06:23;;;;;;;0.80;0.40;;;22.70;60.80;;;;;;5067955;28;20102;-17
2022/06/10 06:08:48;;;;;;;0.60;0.20;;;22.60;61.10;;;;;;5063382;28;20044;-18
2022/06/10 06:11:15;;;;;;;0.32;0.30;;;22.60;61.70;;;;;;5068532;28;20147;-17
2022/06/10 06:13:42;;;;;;;0.20;0.20;;;22.70;61.30;;;;;;5071025;28;20044;-19
2022/06/10 06:16:09;;;;;;;0.30;0.30;;;22.70;61.80;;;;;;5067198;28;20047;-22
2022/06/10 06:18:35;;;;;;;2.75;0.30;;;22.70;61.80;;;;;;5040991;28;20520;-19
2022/06/10 06:21:00;;;;;;;0.55;0.28;;;22.70;61.90;;;;;;5063183;28;20414;-20
2022/06/10 06:23:26;;;;;;;1.63;0.30;;;22.70;61.80;;;;;;5068161;28;20110;-19
2022/06/10 06:25:52;;;;;;;0.20;0.20;;;22.70;61.80;;;;;;5071585;28;20584;-18
2022/06/10 06:28:18;;;;;;;0.30;0.25;;;22.70;61.90;;;;;;5037307;28;20048;-17
2022/06/10 06:30:43;;;;;;;0.70;0.40;;;22.70;61.90;;;;;;5067789;28;20075;-17
2022/06/10 06:33:09;;;;;;;0.73;0.30;;;22.70;62.10;;;;;;5064519;28;20048;-17
2022/06/10 06:35:35;;;;;;;0.32;0.20;;;22.60;62.20;;;;;;5070646;28;20048;-20
2022/06/10 06:38:01;;;;;;;0.40;0.40;;;22.70;62.20;;;;;;5061602;28;20056;-17
2022/06/10 06:40:26;;;;;;;0.30;0.20;;;22.70;61.80;;;;;;5062253;28;20101;-18
2022/06/10 06:42:52;;;;;;;0.20;0.17;;;22.60;61.70;;;;;;5048382;28;20414;-19
2022/06/10 06:45:18;;;;;;;0.30;0.30;;;22.70;61.80;;;;;;5065693;28;20079;-17
2022/06/10 06:47:44;;;;;;;0.32;0.20;;;22.70;61.70;;;;;;5069310;28;20532;-19
2022/06/10 06:50:11;;;;;;;0.30;0.20;;;22.70;61.70;;;;;;5073598;28;20425;-19
2022/06/10 06:52:36;;;;;;;1.13;0.38;;;22.60;61.60;;;;;;5057224;28;20050;-18
2022/06/10 06:55:03;;;;;;;0.40;0.20;;;22.70;61.70;;;;;;5076263;28;20127;-19
2022/06/10 06:57:29;;;;;;;1.02;0.20;;;22.70;61.80;;;;;;5076137;28;20079;-17
2022/06/10 07:00:02;;;;;;;0.20;0.20;;;22.70;61.60;;;;;;5065517;28;20116;-17
2022/06/10 07:02:28;;;;;;;0.47;0.20;;;22.70;61.80;;;;;;5067189;28;20052;-18
2022/06/10 07:04:53;;;;;;;0.47;0.30;;;22.70;61.80;;;;;;5074612;28;20060;-18
2022/06/10 07:07:19;;;;;;;0.30;0.20;;;22.70;61.80;;;;;;5074984;28;20046;-17
2022/06/10 07:09:44;;;;;;;0.52;0.15;;;22.70;61.80;;;;;;5064146;28;20060;-17
2022/06/10 07:12:10;;;;;;;0.35;0.25;;;22.70;61.80;;;;;;5071184;28;20051;-20
2022/06/10 07:14:36;;;;;;;0.32;0.20;;;22.70;61.80;;;;;;5075867;28;20071;-17
2022/06/10 07:17:01;;;;;;;0.40;0.20;;;22.80;61.70;;;;;;5075569;28;20134;-20
2022/06/10 07:19:27;;;;;;;0.40;0.40;;;22.80;61.50;;;;;;5074996;28;20055;-19
2022/06/10 07:21:52;;;;;;;0.45;0.20;;;22.80;61.60;;;;;;5074139;28;20150;-17
2022/06/10 07:24:18;;;;;;;0.38;0.25;;;22.80;61.40;;;;;;5075491;28;20057;-17
2022/06/10 07:26:43;;;;;;;0.20;0.20;;;22.70;61.50;;;;;;5074984;28;20036;-18
2022/06/10 07:29:10;;;;;;;0.20;0.20;;;22.80;61.50;;;;;;5070214;28;20037;-17
2022/06/10 07:31:39;;;;;;;0.35;0.30;;;22.80;61.40;;;;;;5072059;28;20090;-18
2022/06/10 07:34:06;;;;;;;0.30;0.17;;;22.80;62.20;;;;;;5067012;28;20044;-17
2022/06/10 07:36:31;;;;;;;0.22;0.20;;;22.70;61.50;;;;;;5075632;28;20041;-17
2022/06/10 07:38:57;;;;;;;0.30;0.20;;;22.70;62.30;;;;;;5072874;28;20094;-19
2022/06/10 07:44:06;;;;;;;0.30;0.10;;;22.70;61.60;;;;;;5070944;28;20102;-18
2022/06/10 07:46:32;;;;;;;0.88;0.22;;;22.70;61.60;;;;;;5075109;28;20048;-19
2022/06/10 07:48:58;;;;;;;0.35;0.28;;;22.60;61.70;;;;;;5074529;28;20052;-20
2022/06/10 07:51:23;;;;;;;0.20;0.20;;;22.60;61.70;;;;;;5057594;28;20414;-20
2022/06/10 07:53:49;;;;;;;0.20;0.20;;;22.60;61.70;;;;;;5054423;28;20040;-19
2022/06/10 07:56:16;;;;;;;0.85;0.20;;;22.60;61.70;;;;;;5037580;28;20120;-17
2022/06/10 07:58:41;;;;;;;0.50;0.50;;;22.60;61.70;;;;;;5073157;28;20493;-18
2022/06/10 08:01:07;;;;;;;0.10;0.10;;;22.60;61.70;;;;;;5075312;28;20520;-20
2022/06/10 08:03:33;;;;;;;0.57;0.30;;;22.60;61.70;;;;;;5074322;28;20851;-19
2022/06/10 08:05:59;;;;;;;0.32;0.20;;;22.60;61.70;;;;;;5074512;28;20060;-19
2022/06/10 08:08:25;;;;;;;0.50;0.40;;;22.60;61.70;;;;;;5075065;28;20348;-18
2022/06/10 08:10:50;;;;;;;1.40;0.20;;;22.60;61.70;;;;;;5074590;28;20322;-18
2022/06/10 08:13:16;;;;;;;0.22;0.10;;;22.60;61.70;;;;;;5075263;28;20040;-18
2022/06/10 08:15:42;;;;;;;0.32;0.10;;;22.60;61.70;;;;;;5073486;28;20055;-18
2022/06/10 08:18:08;;;;;;;0.20;0.20;;;22.60;61.70;;;;;;5075037;28;20052;-17
2022/06/10 08:23:21;;;;;;;0.45;0.10;;;22.60;61.70;;;;;;5078484;28;20110;-19
2022/06/10 08:25:47;;;;;;;0.73;0.20;;;22.60;61.70;;;;;;5080270;28;20114;-20
2022/06/10 08:28:13;;;;;;;0.20;0.20;;;22.70;61.70;;;;;;5081008;28;20048;-20
2022/06/10 08:30:38;;;;;;;0.20;0.10;;;22.80;61.30;;;;;;5071028;28;20093;-19
2022/06/10 08:33:04;;;;;;;0.10;0.10;;;22.80;61.40;;;;;;5078438;28;20404;-21
2022/06/10 08:35:33;;;;;;;0.30;0.17;;;22.80;61.40;;;;;;5079334;28;20517;-21
2022/06/10 08:38:00;;;;;;;0.17;0.17;;;22.80;61.60;;;;;;5078263;28;20086;-22
2022/06/10 08:40:31;;;;;;;0.20;0.10;;;22.70;61.80;;;;;;5079150;28;20490;-19
2022/06/10 08:43:02;;;;;;;0.30;0.22;;;22.80;61.50;;;;;;5078130;28;20344;-20
2022/06/10 08:45:34;;;;;;;0.10;0.10;;;22.80;61.60;;;;;;5060320;28;20052;-19
2022/06/10 08:48:09;;;;;;;0.13;0.10;;;22.80;61.50;;;;;;5060976;28;20036;-22
2022/06/10 08:50:46;;;;;;;0.60;0.40;;;22.80;61.40;;;;;;5060894;28;20040;-20
2022/06/10 08:53:30;;;;;;;0.20;0.10;;;22.80;61.50;;;;;;5059338;28;20044;-21
2022/06/10 08:56:18;;;;;;;0.22;0.22;;;22.80;61.60;;;;;;5060276;28;20040;-19
2022/06/10 08:59:04;;;;;;;0.10;0.10;;;22.80;61.50;;;;;;5060284;28;20043;-20
2022/06/10 09:01:31;;;;;;;0.17;0.10;;;22.80;61.50;;;;;;5060851;28;20044;-20
2022/06/10 09:04:02;;;;;;;0.10;0.10;;;22.80;61.40;;;;;;5060236;28;20158;-18
2022/06/10 09:06:48;;;;;;;0.03;0.03;;;22.80;61.50;;;;;;5060836;28;20051;-18
2022/06/10 09:09:13;;;;;;;0.10;0.10;;;22.80;61.60;;;;;;5043905;28;20076;-19
2022/06/10 09:11:51;;;;;;;0.10;0.00;;;22.80;61.60;;;;;;5060722;28;20040;-21
2022/06/10 09:14:22;;;;;;;0.10;0.10;;;22.80;61.60;;;;;;5060083;28;20068;-19
2022/06/10 09:17:09;;;;;;;0.30;0.30;;;22.80;61.40;;;;;;5057885;28;20041;-19
2022/06/10 09:20:12;;;;;;;0.10;0.10;;;22.80;61.40;;;;;;5064422;28;20037;-19
2022/06/10 09:22:56;;;;;;;0.10;0.10;;;22.80;61.50;;;;;;5077287;28;20095;-21
2022/06/10 09:25:37;;;;;;;0.10;0.10;;;22.80;61.40;;;;;;5076699;28;20040;-19
2022/06/10 09:28:03;;;;;;;0.20;0.20;;;22.80;61.30;;;;;;5074347;28;20430;-19
2022/06/10 09:30:51;;;;;;;0.10;0.10;;;22.80;61.20;;;;;;5069531;28;20131;-19
2022/06/10 09:33:27;;;;;;;0.10;0.10;;;22.90;61.30;;;;;;5059608;28;20040;-20
2022/06/10 09:36:01;;;;;;;0.10;0.00;;;22.90;61.30;;;;;;5050596;28;20053;-19
2022/06/10 09:38:30;;;;;;;0.10;0.10;;;22.90;61.30;;;;;;5060739;28;20469;-19
2022/06/10 09:41:04;;;;;;;0.25;0.20;;;22.90;61.30;;;;;;5077377;28;20120;-21
2022/06/10 09:43:42;;;;;;;0.08;0.08;;;22.90;61.30;;;;;;5071783;28;20470;-19
2022/06/10 09:46:34;;;;;;;0.20;0.13;;;22.90;61.30;;;;;;5064272;28;20468;-19
2022/06/10 09:49:24;;;;;;;0.17;0.10;;;22.90;61.30;;;;;;5074943;28;20493;-19
2022/06/10 09:52:11;;;;;;;0.03;0.03;;;22.80;61.30;;;;;;5075156;28;20037;-19
2022/06/10 09:54:49;;;;;;;0.20;0.20;;;22.90;61.20;;;;;;5077603;28;20045;-19
2022/06/10 09:57:38;;;;;;;0.00;0.00;;;22.90;61.20;;;;;;5072531;28;20059;-20
2022/06/10 10:00:13;;;;;;;0.17;0.10;;;22.90;61.40;;;;;;5059630;28;20454;-18
2022/06/10 10:02:57;;;;;;;0.10;0.10;;;22.90;61.20;;;;;;5076822;28;20132;-19
2022/06/10 10:05:33;;;;;;;;;;;22.90;61.20;;;;;;5073699;28;20045;-18
2022/06/10 10:08:21;;;;;;;0.00;0.00;;;22.90;61.10;;;;;;5074537;28;19975;-19
2022/06/10 10:10:52;;;;;;;0.10;0.10;;;23.00;61.00;;;;;;5063064;28;20048;-19
2022/06/10 10:13:35;;;;;;;0.20;0.10;;;22.90;61.10;;;;;;5061822;28;20079;-19
2022/06/10 10:16:23;;;;;;;0.00;0.00;;;22.90;61.10;;;;;;5067314;28;20078;-18
2022/06/10 10:19:29;;;;;;;0.75;0.10;;;22.90;61.10;;;;;;5076504;28;20505;-18
2022/06/10 10:22:45;;;;;;;0.10;0.10;;;22.90;61.10;;;;;;5053068;28;20036;-19
2022/06/10 10:25:14;;;;;;;0.13;0.13;;;22.90;61.00;;;;;;4997150;28;20054;-20
2022/06/10 10:27:40;;;;;;;0.22;0.20;;;22.90;61.10;;;;;;5050833;28;20037;-19
2022/06/10 10:30:27;;;;;;;0.00;0.00;;;22.90;61.10;;;;;;5053029;28;20111;-20
2022/06/10 10:32:55;;;;;;;1.25;0.10;;;22.90;61.10;;;;;;5040987;28;20072;-19
2022/06/10 10:35:30;;;;;;;0.10;0.10;;;22.90;61.10;;;;;;5054050;28;20072;-20
2022/06/10 10:38:01;;;;;;;0.00;0.00;;;23.00;61.00;;;;;;5027928;28;20041;-20
2022/06/10 10:40:36;;;;;;;0.10;0.10;;;22.90;61.10;;;;;;5056499;28;20045;-20
2022/06/10 10:43:06;;;;;;;0.40;0.10;;;22.90;61.10;;;;;;5053538;28;20040;-20
2022/06/10 10:45:33;;;;;;;0.10;0.10;;;22.90;61.10;;;;;;5055055;28;20073;-19
2022/06/10 10:48:11;;;;;;;0.22;0.10;;;23.00;61.00;;;;;;5055062;28;20040;-18
2022/06/10 10:50:38;;;;;;;0.15;0.10;;;23.00;60.80;;;;;;5056434;28;20287;-19
2022/06/10 10:53:26;;;;;;;1.38;0.10;;;23.00;60.90;;;;;;5055590;28;20041;-19
2022/06/10 10:55:54;;;;;;;0.00;0.00;;;23.00;60.90;;;;;;5062057;28;20052;-21
2022/06/10 10:58:24;;;;;;;0.00;0.00;;;23.00;61.00;;;;;;5056442;28;20072;-21
2022/06/10 11:00:56;;;;;;;0.00;0.00;;;23.00;61.00;;;;;;5063998;28;20408;-18
2022/06/10 11:03:29;;;;;;;0.20;0.20;;;23.00;61.00;;;;;;5055491;28;20045;-19
2022/06/10 11:05:56;;;;;;;0.10;0.10;;;23.00;61.00;;;;;;5049541;28;20049;-18
2022/06/10 11:08:23;;;;;;;0.20;0.00;;;23.00;61.00;;;;;;5054779;28;20072;-19
2022/06/10 11:11:05;;;;;;;0.20;0.10;;;23.00;61.20;;;;;;5055106;28;20053;-23
2022/06/10 11:13:31;;;;;;;0.08;0.00;;;23.00;61.10;;;;;;5054432;28;20044;-19
2022/06/10 11:16:27;;;;;;;0.08;0.03;;;23.00;61.00;;;;;;5055117;28;20088;-23
2022/06/10 11:19:13;;;;;;;0.00;0.00;;;23.00;61.10;;;;;;5054373;28;20060;-19
2022/06/10 11:22:15;;;;;;;0.10;0.00;;;23.00;61.00;;;;;;5055612;28;20419;-19
2022/06/10 11:24:43;;;;;;;0.00;0.00;;;23.00;61.00;;;;;;5044936;28;20072;-19
2022/06/10 11:27:35;;;;;;;0.15;0.10;;;23.00;61.10;;;;;;5054990;28;20075;-20
2022/06/10 11:30:08;;;;;;;0.10;0.00;;;23.00;61.10;;;;;;5044889;28;20075;-20
2022/06/10 11:32:42;;;;;;;0.45;0.10;;;23.00;61.20;;;;;;5039906;28;20390;-19
2022/06/10 11:35:33;;;;;;;0.20;0.10;;;23.00;60.90;;;;;;5054202;28;20047;-19
2022/06/10 11:38:06;;;;;;;1.20;0.05;;;23.00;60.90;;;;;;5053411;28;20071;-20
2022/06/10 11:40:48;;;;;;;0.15;0.00;;;23.00;60.90;;;;;;5056018;28;20526;-20
2022/06/10 11:43:16;;;;;;;0.00;0.00;;;23.00;61.40;;;;;;5062415;28;20041;-19
2022/06/10 11:46:16;;;;;;;0.10;0.10;;;23.00;62.00;;;;;;5051894;28;20128;-19
2022/06/10 11:48:54;;;;;;;0.10;0.10;;;23.10;61.80;;;;;;5023413;28;20050;-20
2022/06/10 11:51:44;;;;;;;0.30;0.10;;;23.00;61.80;;;;;;5018603;28;20054;-19
2022/06/10 11:54:42;;;;;;;0.10;0.10;;;23.00;62.10;;;;;;5017126;28;20129;-19
2022/06/10 12:00:20;;;;;;;0.32;0.15;;;23.00;62.20;;;;;;5053652;28;20508;-19
2022/06/10 12:03:13;;;;;;;0.30;0.10;;;23.00;62.00;;;;;;5044363;28;20414;-21
2022/06/10 12:05:38;;;;;;;0.25;0.20;;;23.10;62.10;;;;;;5028980;28;20036;-23
2022/06/10 12:08:16;;;;;;;0.20;0.13;;;23.00;62.20;;;;;;5051396;28;20090;-20
2022/06/10 12:10:58;;;;;;;0.30;0.28;;;23.00;62.10;;;;;;5042662;28;20037;-20
2022/06/10 12:13:24;;;;;;;0.20;0.20;;;23.10;62.20;;;;;;5054503;28;20102;-18
2022/06/10 12:15:57;;;;;;;0.10;0.03;;;23.10;62.20;;;;;;5052937;28;20105;-18
2022/06/10 12:18:29;;;;;;;0.70;0.10;;;23.10;62.30;;;;;;5035711;28;20040;-18
2022/06/10 12:21:01;;;;;;;0.20;0.10;;;23.10;62.00;;;;;;5051786;28;20041;-18
2022/06/10 12:23:31;;;;;;;1.17;0.10;;;23.10;62.00;;;;;;5035521;28;20053;-18
2022/06/10 12:26:02;;;;;;;0.20;0.10;;;23.10;62.10;;;;;;5059263;28;20528;-18
2022/06/10 12:28:35;;;;;;;0.30;0.10;;;23.10;62.10;;;;;;5065781;28;20425;-20
2022/06/10 12:31:31;;;;;;;0.32;0.13;;;23.10;62.10;;;;;;5053965;28;20042;-18
2022/06/10 12:34:02;;;;;;;1.38;0.10;;;23.00;62.10;;;;;;5072469;28;20048;-19
2022/06/10 12:36:35;;;;;;;0.10;0.10;;;23.10;62.10;;;;;;5056016;28;20102;-18
2022/06/10 12:39:01;;;;;;;0.17;0.10;;;23.00;62.10;;;;;;5039800;28;20045;-18
2022/06/10 12:41:42;;;;;;;0.10;0.10;;;23.10;62.00;;;;;;5056004;28;20053;-18
2022/06/10 12:44:13;;;;;;;0.10;0.10;;;23.10;62.10;;;;;;5036602;28;20111;-19
2022/06/10 12:46:48;;;;;;;0.20;0.20;;;23.00;62.00;;;;;;5043886;28;20052;-19
2022/06/10 12:49:32;;;;;;;0.00;0.00;;;23.10;62.10;;;;;;5051990;28;20095;-19
2022/06/10 12:52:25;;;;;;;0.25;0.00;;;23.10;62.30;;;;;;5055847;28;20060;-18
2022/06/10 12:55:10;;;;;;;0.10;0.00;;;23.10;62.20;;;;;;5069925;28;20461;-19
2022/06/10 12:57:38;;;;;;;0.05;0.00;;;23.00;62.20;;;;;;5056653;28;20043;-20
2022/06/10 13:00:19;;;;;;;0.10;0.10;;;23.10;62.30;;;;;;5077356;28;20062;-18
2022/06/10 13:02:48;;;;;;;0.22;0.13;;;23.00;62.40;;;;;;5081597;28;20043;-18
2022/06/10 13:05:27;;;;;;;0.00;0.00;;;23.10;62.30;;;;;;5073579;28;20044;-18
2022/06/10 13:07:53;;;;;;;0.70;0.30;;;23.10;62.30;;;;;;5054284;28;20041;-19
2022/06/10 13:10:40;;;;;;;0.10;0.10;;;23.10;62.30;;;;;;5061814;28;20052;-18
2022/06/10 13:13:16;;;;;;;0.00;0.00;;;23.00;62.80;;;;;;5055382;28;20052;-17
2022/06/10 13:15:42;;;;;;;0.45;0.20;;;23.10;62.50;;;;;;5073092;28;20040;-19
2022/06/10 13:18:17;;;;;;;0.22;0.15;;;23.10;62.30;;;;;;5067394;28;20051;-18
2022/06/10 13:20:43;;;;;;;0.10;0.10;;;23.10;62.20;;;;;;5077155;28;20620;-18
2022/06/10 13:23:23;;;;;;;0.10;0.10;;;23.10;62.20;;;;;;5076122;28;20052;-18
2022/06/10 13:26:10;;;;;;;0.17;0.13;;;23.10;62.40;;;;;;5078096;28;20405;-18
2022/06/10 13:28:38;;;;;;;0.00;0.00;;;23.10;62.40;;;;;;5061061;28;20076;-17
2022/06/10 13:31:15;;;;;;;0.00;0.00;;;23.10;62.30;;;;;;5065864;28;20047;-18